createdAt,value
2017-12-12T00:00:56.614Z,9.70
2017-12-12T00:03:24.517Z,10.60
2017-12-12T00:05:52.431Z,10.30
2017-12-12T00:08:20.384Z,9.40
2017-12-12T00:10:48.242Z,9.80
2017-12-12T00:13:16.233Z,9.17
2017-12-12T00:15:44.240Z,11.33
2017-12-12T00:18:12.137Z,9.90
2017-12-12T00:20:40.010Z,9.80
2017-12-12T00:23:07.933Z,9.23
2017-12-12T00:25:35.818Z,10.27
2017-12-12T00:28:03.737Z,12.33
2017-12-12T00:30:31.730Z,9.20
2017-12-12T00:32:59.604Z,8.60
2017-12-12T00:35:27.829Z,8.50
2017-12-12T00:37:55.797Z,9.00
2017-12-12T00:40:23.736Z,9.17
2017-12-12T00:42:51.602Z,9.33
2017-12-12T00:45:19.505Z,7.90
2017-12-12T00:47:58.389Z,8.27
2017-12-12T00:50:26.385Z,8.83
2017-12-12T00:52:54.274Z,9.10
2017-12-12T00:55:22.169Z,7.30
2017-12-12T00:57:50.063Z,8.10
2017-12-12T01:00:17.970Z,8.47
2017-12-12T01:02:45.833Z,7.07
2017-12-12T01:05:13.732Z,8.53
2017-12-12T01:07:41.642Z,9.50
2017-12-12T01:10:09.558Z,8.20
2017-12-12T01:12:37.482Z,9.20
2017-12-12T01:15:06.490Z,9.93
2017-12-12T01:17:34.366Z,8.70
2017-12-12T01:20:02.267Z,8.37
2017-12-12T01:22:30.160Z,8.80
2017-12-12T01:24:58.097Z,8.20
2017-12-12T01:27:26.118Z,7.80
2017-12-12T01:29:54.030Z,6.90
2017-12-12T01:32:22.140Z,7.20
2017-12-12T01:34:50.018Z,9.20
2017-12-12T01:37:18.129Z,6.40
2017-12-12T01:39:46.000Z,6.63
2017-12-12T01:42:13.943Z,6.27
2017-12-12T01:44:42.293Z,5.40
2017-12-12T01:47:10.171Z,6.27
2017-12-12T01:49:38.124Z,6.00
2017-12-12T01:52:06.026Z,6.40
2017-12-12T01:54:33.898Z,5.43
2017-12-12T01:57:01.991Z,5.90
2017-12-12T01:59:29.908Z,5.57
2017-12-12T02:01:57.774Z,5.37
2017-12-12T02:04:25.656Z,4.80
2017-12-12T02:06:53.519Z,4.43
2017-12-12T02:09:21.414Z,9.20
2017-12-12T02:11:49.298Z,4.40
2017-12-12T02:14:17.212Z,3.83
2017-12-12T02:16:45.072Z,3.47
2017-12-12T02:19:12.935Z,3.80
2017-12-12T02:21:40.849Z,3.73
2017-12-12T02:24:08.866Z,3.60
2017-12-12T02:26:36.724Z,3.10
2017-12-12T02:29:04.633Z,3.60
2017-12-12T02:31:32.562Z,3.00
2017-12-12T02:34:00.457Z,3.60
2017-12-12T02:36:28.459Z,2.60
2017-12-12T02:38:56.329Z,2.80
2017-12-12T02:41:24.202Z,3.27
2017-12-12T02:43:52.176Z,3.07
2017-12-12T02:46:20.041Z,2.70
2017-12-12T02:48:47.938Z,2.60
2017-12-12T02:51:15.892Z,2.70
2017-12-12T02:53:43.765Z,2.50
2017-12-12T02:56:11.664Z,2.43
2017-12-12T02:58:39.677Z,2.70
2017-12-12T03:01:07.567Z,2.53
2017-12-12T03:03:35.425Z,1.83
2017-12-12T03:06:03.303Z,2.07
2017-12-12T03:08:31.260Z,2.30
2017-12-12T03:10:59.167Z,2.03
2017-12-12T03:13:27.040Z,2.00
2017-12-12T03:15:54.933Z,1.90
2017-12-12T03:18:22.797Z,1.40
2017-12-12T03:20:50.689Z,1.80
2017-12-12T03:23:18.564Z,1.60
2017-12-12T03:25:46.462Z,2.00
2017-12-12T03:28:14.359Z,1.53
2017-12-12T03:30:42.234Z,1.70
2017-12-12T03:33:10.143Z,1.70
2017-12-12T03:35:38.021Z,1.73
2017-12-12T03:38:05.922Z,1.40
2017-12-12T03:40:33.792Z,1.70
2017-12-12T03:43:01.721Z,1.40
2017-12-12T03:45:29.682Z,1.17
2017-12-12T03:47:57.886Z,1.47
2017-12-12T03:50:25.765Z,1.60
2017-12-12T03:52:53.624Z,1.60
2017-12-12T03:55:21.475Z,1.30
2017-12-12T03:57:49.362Z,1.40
2017-12-12T04:00:17.213Z,1.13
2017-12-12T04:02:45.073Z,1.40
2017-12-12T04:05:12.994Z,1.10
2017-12-12T04:07:40.884Z,1.20
2017-12-12T04:10:08.764Z,1.00
2017-12-12T04:12:36.637Z,1.20
2017-12-12T04:15:04.501Z,1.10
2017-12-12T04:17:32.365Z,1.20
2017-12-12T04:20:00.277Z,1.20
2017-12-12T04:22:28.186Z,1.50
2017-12-12T04:24:56.037Z,1.47
2017-12-12T04:27:23.928Z,1.40
2017-12-12T04:29:51.781Z,1.50
2017-12-12T04:32:19.646Z,1.80
2017-12-12T04:34:47.528Z,1.77
2017-12-12T04:37:15.387Z,1.03
2017-12-12T04:39:43.261Z,1.70
2017-12-12T04:42:11.158Z,1.20
2017-12-12T04:44:39.023Z,1.60
2017-12-12T04:47:06.933Z,1.40
2017-12-12T04:49:34.799Z,1.10
2017-12-12T04:52:02.661Z,1.17
2017-12-12T04:54:30.521Z,1.10
2017-12-12T04:56:58.431Z,0.90
2017-12-12T04:59:26.327Z,1.43
2017-12-12T05:01:54.181Z,1.70
2017-12-12T05:04:22.064Z,1.50
2017-12-12T05:06:49.989Z,1.33
2017-12-12T05:09:17.886Z,1.20
2017-12-12T05:11:45.789Z,0.90
2017-12-12T05:14:13.660Z,2.13
2017-12-12T05:16:41.516Z,1.67
2017-12-12T05:19:10.396Z,2.03
2017-12-12T05:21:38.222Z,1.40
2017-12-12T05:24:06.064Z,1.60
2017-12-12T05:26:33.945Z,1.37
2017-12-12T05:29:01.787Z,1.40
2017-12-12T05:31:29.663Z,1.47
2017-12-12T05:33:57.504Z,1.00
2017-12-12T05:36:25.382Z,1.50
2017-12-12T05:38:53.256Z,1.90
2017-12-12T05:41:21.207Z,1.70
2017-12-12T05:43:49.098Z,1.70
2017-12-12T05:46:16.952Z,1.53
2017-12-12T05:48:44.816Z,1.93
2017-12-12T05:51:12.670Z,1.60
2017-12-12T05:53:40.542Z,1.20
2017-12-12T05:56:08.485Z,1.43
2017-12-12T05:58:36.352Z,1.73
2017-12-12T06:01:04.252Z,1.90
2017-12-12T06:03:32.142Z,1.47
2017-12-12T06:06:00.081Z,1.80
2017-12-12T06:08:27.992Z,1.40
2017-12-12T06:10:55.832Z,1.53
2017-12-12T06:13:23.679Z,1.33
2017-12-12T06:15:51.535Z,1.50
2017-12-12T06:18:19.388Z,1.43
2017-12-12T06:20:47.261Z,0.97
2017-12-12T06:23:15.132Z,1.30
2017-12-12T06:25:43.121Z,1.20
2017-12-12T06:28:10.963Z,1.33
2017-12-12T06:30:38.861Z,1.50
2017-12-12T06:33:06.759Z,1.20
2017-12-12T06:35:34.687Z,1.33
2017-12-12T06:38:02.598Z,1.10
2017-12-12T06:40:30.485Z,1.17
2017-12-12T06:42:58.414Z,1.10
2017-12-12T06:45:26.310Z,1.03
2017-12-12T06:47:54.168Z,1.00
2017-12-12T06:50:22.063Z,1.30
2017-12-12T06:52:49.972Z,1.47
2017-12-12T06:55:17.819Z,1.10
2017-12-12T06:57:45.721Z,1.30
2017-12-12T07:00:13.604Z,0.90
2017-12-12T07:02:41.491Z,1.10
2017-12-12T07:05:09.393Z,1.20
2017-12-12T07:07:37.288Z,0.80
2017-12-12T07:10:05.165Z,0.90
2017-12-12T07:12:33.042Z,0.93
2017-12-12T07:15:01.030Z,1.00
2017-12-12T07:17:28.883Z,1.10
2017-12-12T07:19:56.757Z,1.20
2017-12-12T07:22:24.653Z,0.83
2017-12-12T07:24:52.582Z,1.00
2017-12-12T07:27:20.464Z,0.70
2017-12-12T07:29:48.386Z,1.17
2017-12-12T07:32:16.256Z,0.80
2017-12-12T07:34:44.110Z,0.70
2017-12-12T07:37:12.044Z,0.83
2017-12-12T07:39:39.891Z,0.90
2017-12-12T07:42:07.761Z,1.00
2017-12-12T07:44:35.651Z,0.70
2017-12-12T07:47:03.593Z,1.00
2017-12-12T07:49:31.499Z,0.90
2017-12-12T07:51:59.424Z,1.00
2017-12-12T07:54:28.270Z,1.00
2017-12-12T07:56:56.361Z,0.90
2017-12-12T07:59:24.250Z,1.10
2017-12-12T08:01:52.104Z,0.90
2017-12-12T08:04:19.958Z,0.80
2017-12-12T08:06:47.872Z,0.80
2017-12-12T08:09:15.735Z,1.30
2017-12-12T08:11:43.581Z,1.20
2017-12-12T08:14:11.521Z,1.10
2017-12-12T08:16:39.434Z,1.70
2017-12-12T08:19:07.302Z,1.90
2017-12-12T08:21:35.746Z,2.00
2017-12-12T08:24:03.680Z,1.30
2017-12-12T08:26:31.550Z,1.10
2017-12-12T08:28:59.449Z,1.43
2017-12-12T08:31:27.324Z,0.93
2017-12-12T08:33:55.271Z,1.43
2017-12-12T08:36:23.213Z,1.33
2017-12-12T08:38:51.068Z,1.33
2017-12-12T08:41:18.953Z,1.90
2017-12-12T08:43:46.834Z,2.67
2017-12-12T08:46:14.681Z,2.63
2017-12-12T08:48:42.507Z,2.13
2017-12-12T08:51:10.455Z,2.10
2017-12-12T08:53:38.323Z,2.73
2017-12-12T08:56:06.204Z,2.77
2017-12-12T08:58:34.133Z,2.47
2017-12-12T09:01:01.972Z,3.20
2017-12-12T09:03:29.890Z,2.80
2017-12-12T09:05:57.767Z,4.57
2017-12-12T09:08:25.632Z,3.57
2017-12-12T09:10:53.524Z,3.30
2017-12-12T09:13:21.405Z,2.70
2017-12-12T09:15:49.230Z,2.23
2017-12-12T09:18:17.132Z,2.40
2017-12-12T09:20:45.010Z,1.73
2017-12-12T09:23:12.861Z,3.37
2017-12-12T09:25:40.701Z,3.10
2017-12-12T09:28:08.569Z,2.17
2017-12-12T09:30:36.403Z,2.10
2017-12-12T09:33:04.263Z,2.47
2017-12-12T09:35:32.143Z,3.60
2017-12-12T09:38:00.049Z,2.40
2017-12-12T09:40:27.944Z,2.50
2017-12-12T09:42:55.827Z,2.60
2017-12-12T09:45:23.674Z,2.83
2017-12-12T09:47:52.534Z,4.13
2017-12-12T09:50:20.404Z,2.03
2017-12-12T09:52:48.273Z,2.20
2017-12-12T09:55:16.138Z,2.37
2017-12-12T09:57:44.028Z,2.53
2017-12-12T10:00:11.880Z,1.80
2017-12-12T10:02:39.730Z,1.80
2017-12-12T10:05:07.718Z,2.90
2017-12-12T10:07:35.610Z,2.20
2017-12-12T10:10:03.473Z,2.23
2017-12-12T10:12:31.389Z,2.03
2017-12-12T10:15:00.020Z,2.50
2017-12-12T10:17:27.947Z,2.10
2017-12-12T10:19:55.826Z,2.50
2017-12-12T10:22:23.692Z,2.60
2017-12-12T10:24:51.560Z,2.50
2017-12-12T10:27:19.451Z,3.20
2017-12-12T10:29:47.296Z,3.30
2017-12-12T10:32:15.189Z,2.60
2017-12-12T10:34:43.045Z,3.10
2017-12-12T10:37:10.880Z,2.67
2017-12-12T10:39:39.057Z,2.73
2017-12-12T10:42:06.906Z,2.50
2017-12-12T10:44:43.499Z,3.27
2017-12-12T10:47:11.386Z,2.03
2017-12-12T10:49:39.293Z,2.73
2017-12-12T10:52:07.147Z,2.00
2017-12-12T10:54:35.045Z,2.33
2017-12-12T10:57:02.917Z,2.20
2017-12-12T10:59:30.768Z,1.87
2017-12-12T11:01:58.682Z,1.60
2017-12-12T11:04:26.546Z,1.90
2017-12-12T11:06:54.463Z,2.37
2017-12-12T11:09:22.312Z,2.03
2017-12-12T11:11:50.200Z,2.20
2017-12-12T11:14:18.048Z,2.30
2017-12-12T11:16:45.880Z,2.47
2017-12-12T11:19:13.841Z,2.23
2017-12-12T11:21:41.713Z,2.63
2017-12-12T11:24:09.556Z,3.27
2017-12-12T11:26:37.491Z,3.47
2017-12-12T11:29:05.374Z,3.77
2017-12-12T11:31:33.239Z,4.23
2017-12-12T11:34:01.102Z,4.03
2017-12-12T11:36:28.974Z,3.37
2017-12-12T11:38:56.817Z,4.50
2017-12-12T11:41:24.684Z,4.57
2017-12-12T11:43:52.523Z,4.30
2017-12-12T11:46:20.433Z,5.63
2017-12-12T11:48:48.279Z,7.00
2017-12-12T11:51:16.145Z,4.60
2017-12-12T11:53:44.015Z,4.50
2017-12-12T11:56:11.907Z,5.30
2017-12-12T11:58:39.769Z,4.50
2017-12-12T12:01:07.631Z,4.37
2017-12-12T12:03:35.488Z,4.80
2017-12-12T12:06:03.362Z,5.30
2017-12-12T12:08:31.267Z,6.07
2017-12-12T12:10:59.153Z,4.93
2017-12-12T12:13:27.010Z,4.30
2017-12-12T12:15:54.915Z,5.23
2017-12-12T12:18:22.806Z,4.67
2017-12-12T12:20:50.691Z,4.80
2017-12-12T12:23:18.531Z,4.30
2017-12-12T12:25:46.419Z,4.60
2017-12-12T12:28:14.265Z,4.97
2017-12-12T12:30:42.171Z,4.37
2017-12-12T12:33:10.152Z,5.03
2017-12-12T12:35:38.053Z,4.23
2017-12-12T12:38:05.909Z,3.90
2017-12-12T12:40:33.932Z,4.50
2017-12-12T12:43:01.873Z,4.13
2017-12-12T12:45:29.829Z,3.80
2017-12-12T12:47:57.797Z,4.57
2017-12-12T12:50:25.663Z,4.10
2017-12-12T12:52:53.519Z,4.70
2017-12-12T12:55:21.402Z,4.87
2017-12-12T12:57:49.260Z,4.60
2017-12-12T13:00:17.156Z,5.00
2017-12-12T13:02:45.012Z,3.93
2017-12-12T13:05:12.909Z,4.27
2017-12-12T13:07:41.221Z,4.30
2017-12-12T13:10:09.652Z,4.30
2017-12-12T13:12:37.503Z,4.27
2017-12-12T13:15:05.360Z,4.17
2017-12-12T13:17:33.249Z,4.53
2017-12-12T13:20:01.371Z,4.50
2017-12-12T13:22:29.251Z,5.00
2017-12-12T13:24:57.126Z,4.37
2017-12-12T13:27:25.888Z,4.20
2017-12-12T13:29:53.756Z,6.07
2017-12-12T13:32:21.649Z,5.10
2017-12-12T13:34:49.506Z,4.47
2017-12-12T13:37:17.381Z,5.40
2017-12-12T13:39:45.271Z,5.30
2017-12-12T13:42:13.157Z,5.50
2017-12-12T13:44:41.059Z,5.60
2017-12-12T13:47:08.955Z,4.80
2017-12-12T13:49:36.801Z,8.47
2017-12-12T13:52:04.673Z,6.90
2017-12-12T13:54:32.545Z,8.00
2017-12-12T13:57:00.410Z,6.07
2017-12-12T13:59:28.314Z,6.13
2017-12-12T14:01:56.181Z,6.90
2017-12-12T14:04:24.034Z,7.00
2017-12-12T14:06:51.909Z,6.53
2017-12-12T14:09:19.745Z,6.80
2017-12-12T14:11:47.579Z,7.63
2017-12-12T14:14:15.511Z,6.07
2017-12-12T14:16:43.351Z,6.60
2017-12-12T14:19:11.195Z,6.20
2017-12-12T14:21:39.072Z,6.43
2017-12-12T14:24:06.920Z,5.93
2017-12-12T14:26:34.765Z,6.07
2017-12-12T14:29:02.665Z,5.80
2017-12-12T14:31:30.569Z,7.90
2017-12-12T14:33:58.522Z,6.23
2017-12-12T14:36:26.408Z,5.40
2017-12-12T14:38:54.296Z,7.93
2017-12-12T14:41:22.169Z,7.90
2017-12-12T14:43:50.076Z,6.40
2017-12-12T14:46:17.984Z,6.17
2017-12-12T14:48:45.856Z,6.57
2017-12-12T14:51:13.757Z,8.03
2017-12-12T14:53:41.613Z,6.70
2017-12-12T14:56:09.485Z,6.20
2017-12-12T14:58:37.353Z,6.20
2017-12-12T15:01:05.207Z,7.50
2017-12-12T15:03:33.917Z,7.00
2017-12-12T15:06:01.796Z,6.87
2017-12-12T15:08:29.682Z,5.80
2017-12-12T15:10:57.595Z,6.60
2017-12-12T15:13:25.460Z,7.80
2017-12-12T15:15:53.385Z,6.20
2017-12-12T15:18:21.252Z,6.70
2017-12-12T15:20:50.270Z,7.60
2017-12-12T15:23:18.137Z,7.27
2017-12-12T15:25:45.980Z,6.80
2017-12-12T15:28:13.850Z,7.10
2017-12-12T15:30:41.764Z,7.07
2017-12-12T15:33:09.762Z,8.07
2017-12-12T15:35:37.615Z,7.80
2017-12-12T15:38:05.511Z,8.03
2017-12-12T15:40:33.380Z,9.50
2017-12-12T15:43:01.285Z,14.07
2017-12-12T15:45:29.377Z,9.80
2017-12-12T15:47:57.223Z,9.43
2017-12-12T15:50:25.080Z,9.30
2017-12-12T15:52:52.995Z,10.80
2017-12-12T15:55:20.864Z,12.73
2017-12-12T15:57:48.734Z,8.33
2017-12-12T16:00:16.629Z,8.30
2017-12-12T16:02:44.496Z,8.33
2017-12-12T16:05:12.337Z,8.40
2017-12-12T16:07:40.238Z,6.97
2017-12-12T16:10:08.109Z,8.13
2017-12-12T16:12:35.961Z,9.70
2017-12-12T16:15:03.886Z,9.30
2017-12-12T16:17:31.796Z,9.97
2017-12-12T16:19:59.663Z,9.73
2017-12-12T16:22:27.560Z,11.23
2017-12-12T16:24:55.447Z,19.50
2017-12-12T16:27:23.320Z,10.60
2017-12-12T16:29:51.207Z,11.27
2017-12-12T16:32:19.061Z,9.30
2017-12-12T16:34:46.958Z,11.60
2017-12-12T16:37:14.855Z,19.57
2017-12-12T16:39:42.812Z,9.60
2017-12-12T16:42:10.650Z,12.20
2017-12-12T16:44:38.633Z,10.70
2017-12-12T16:47:06.461Z,14.30
2017-12-12T16:49:34.349Z,14.10
2017-12-12T16:52:02.271Z,10.27
2017-12-12T16:54:30.192Z,11.17
2017-12-12T16:56:58.056Z,12.50
2017-12-12T16:59:25.935Z,9.50
2017-12-12T17:01:53.780Z,8.67
2017-12-12T17:04:21.746Z,8.90
2017-12-12T17:06:49.710Z,7.30
2017-12-12T17:09:17.828Z,6.70
2017-12-12T17:11:45.685Z,7.87
2017-12-12T17:14:13.629Z,7.27
2017-12-12T17:16:41.545Z,8.37
2017-12-12T17:19:09.386Z,6.50
2017-12-12T17:21:37.257Z,7.70
2017-12-12T17:24:05.131Z,8.10
2017-12-12T17:26:33.037Z,6.23
2017-12-12T17:29:01.005Z,6.57
2017-12-12T17:31:28.956Z,7.40
2017-12-12T17:33:56.907Z,7.63
2017-12-12T17:36:25.335Z,7.63
2017-12-12T17:38:53.263Z,7.70
2017-12-12T17:41:21.138Z,9.77
2017-12-12T17:43:49.369Z,9.10
2017-12-12T17:46:17.260Z,12.60
2017-12-12T17:48:45.216Z,7.10
2017-12-12T17:51:13.116Z,9.50
2017-12-12T17:53:41.093Z,10.63
2017-12-12T17:56:09.108Z,12.60
2017-12-12T17:58:40.428Z,8.03
2017-12-12T18:01:08.360Z,7.83
2017-12-12T18:03:36.519Z,10.23
2017-12-12T18:06:04.476Z,9.87
2017-12-12T18:08:32.969Z,9.83
2017-12-12T18:11:01.060Z,8.07
2017-12-12T18:13:29.171Z,9.30
2017-12-12T18:15:57.068Z,6.50
2017-12-12T18:18:24.923Z,8.00
2017-12-12T18:20:52.833Z,7.67
2017-12-12T18:23:20.940Z,7.07
2017-12-12T18:25:48.824Z,7.40
2017-12-12T18:28:16.782Z,7.47
2017-12-12T18:30:45.380Z,7.30
2017-12-12T18:33:13.248Z,8.60
2017-12-12T18:35:41.184Z,8.00
2017-12-12T18:38:09.527Z,8.30
2017-12-12T18:40:37.799Z,8.17
2017-12-12T18:43:06.181Z,8.83
2017-12-12T18:45:34.308Z,8.30
2017-12-12T18:48:02.203Z,8.00
2017-12-12T18:50:30.319Z,8.47
2017-12-12T18:52:58.473Z,7.23
2017-12-12T18:55:26.394Z,8.93
2017-12-12T18:57:54.322Z,8.50
2017-12-12T19:00:22.157Z,8.87
2017-12-12T19:02:50.323Z,8.50
2017-12-12T19:05:18.274Z,8.90
2017-12-12T19:07:46.328Z,8.97
2017-12-12T19:10:14.306Z,8.80
2017-12-12T19:12:42.205Z,8.73
2017-12-12T19:15:10.093Z,8.10
2017-12-12T19:17:37.942Z,9.63
2017-12-12T19:20:05.929Z,9.70
2017-12-12T19:22:33.908Z,8.50
2017-12-12T19:25:02.053Z,9.13
2017-12-12T19:27:30.207Z,10.30
2017-12-12T19:29:58.158Z,10.10
2017-12-12T19:32:26.049Z,10.30
2017-12-12T19:34:54.002Z,11.73
2017-12-12T19:37:21.854Z,10.10
2017-12-12T19:39:49.760Z,9.20
2017-12-12T19:42:17.715Z,9.13
2017-12-12T19:44:45.564Z,9.70
2017-12-12T19:47:13.443Z,9.70
2017-12-12T19:49:41.478Z,9.67
2017-12-12T19:52:09.372Z,9.77
2017-12-12T19:54:37.247Z,10.50
2017-12-12T19:57:05.223Z,10.80
2017-12-12T19:59:33.080Z,10.30
2017-12-12T20:02:00.963Z,10.27
2017-12-12T20:04:28.872Z,11.47
2017-12-12T20:06:56.770Z,11.33
2017-12-12T20:09:24.637Z,10.27
2017-12-12T20:11:52.572Z,11.10
2017-12-12T20:14:20.445Z,11.30
2017-12-12T20:16:48.490Z,11.37
2017-12-12T20:19:16.406Z,11.57
2017-12-12T20:21:45.119Z,11.50
2017-12-12T20:24:13.080Z,12.20
2017-12-12T20:26:40.998Z,11.17
2017-12-12T20:29:08.864Z,11.97
2017-12-12T20:31:36.750Z,12.03
2017-12-12T20:34:04.805Z,11.87
2017-12-12T20:36:32.721Z,11.80
2017-12-12T20:39:00.587Z,12.03
2017-12-12T20:41:28.507Z,11.00
2017-12-12T20:43:56.388Z,11.80
2017-12-12T20:46:24.267Z,12.30
2017-12-12T20:48:52.186Z,12.27
2017-12-12T20:51:20.117Z,11.73
2017-12-12T20:53:47.998Z,11.97
2017-12-12T20:56:15.948Z,12.93
2017-12-12T20:58:43.793Z,10.87
2017-12-12T21:01:11.687Z,12.50
2017-12-12T21:03:39.600Z,11.30
2017-12-12T21:06:07.484Z,11.80
2017-12-12T21:08:35.370Z,11.93
2017-12-12T21:11:03.289Z,13.47
2017-12-12T21:13:31.304Z,13.27
2017-12-12T21:15:59.208Z,12.50
2017-12-12T21:18:27.097Z,12.40
2017-12-12T21:20:54.957Z,12.27
2017-12-12T21:23:22.849Z,13.47
2017-12-12T21:25:50.756Z,11.70
2017-12-12T21:28:18.672Z,12.60
2017-12-12T21:30:46.538Z,12.90
2017-12-12T21:33:14.414Z,13.00
2017-12-12T21:35:42.277Z,13.03
2017-12-12T21:38:10.141Z,11.60
2017-12-12T21:40:37.995Z,11.77
2017-12-12T21:43:05.914Z,11.27
2017-12-12T21:45:33.857Z,10.73
2017-12-12T21:48:01.879Z,10.27
2017-12-12T21:50:29.752Z,10.90
2017-12-12T21:52:57.637Z,9.93
2017-12-12T21:55:25.503Z,10.80
2017-12-12T21:57:53.341Z,12.47
2017-12-12T22:00:21.231Z,11.20
2017-12-12T22:02:49.095Z,10.33
2017-12-12T22:05:16.981Z,10.67
2017-12-12T22:07:44.837Z,11.37
2017-12-12T22:10:12.731Z,10.03
2017-12-12T22:12:40.585Z,14.43
2017-12-12T22:15:08.477Z,9.20
2017-12-12T22:17:36.368Z,12.50
2017-12-12T22:20:04.252Z,11.03
2017-12-12T22:22:32.103Z,11.50
2017-12-12T22:25:00.108Z,10.47
2017-12-12T22:27:28.059Z,10.40
2017-12-12T22:29:55.902Z,10.97
2017-12-12T22:32:23.768Z,10.83
2017-12-12T22:34:51.592Z,15.10
2017-12-12T22:37:19.433Z,10.77
2017-12-12T22:39:47.306Z,10.83
2017-12-12T22:42:15.156Z,12.50
2017-12-12T22:44:43.090Z,11.03
2017-12-12T22:47:10.965Z,10.80
2017-12-12T22:49:38.804Z,10.23
2017-12-12T22:52:06.635Z,10.97
2017-12-12T22:54:34.527Z,11.07
2017-12-12T22:57:02.381Z,11.63
2017-12-12T22:59:30.253Z,11.07
2017-12-12T23:01:58.556Z,11.23
2017-12-12T23:04:26.410Z,10.73
2017-12-12T23:06:54.256Z,10.40
2017-12-12T23:09:22.181Z,11.83
2017-12-12T23:11:50.035Z,10.97
2017-12-12T23:14:17.913Z,10.27
2017-12-12T23:16:45.768Z,14.97
2017-12-12T23:19:13.630Z,12.43
2017-12-12T23:21:41.476Z,13.20
2017-12-12T23:24:10.241Z,12.13
2017-12-12T23:26:38.097Z,12.47
2017-12-12T23:29:05.955Z,11.73
2017-12-12T23:31:33.861Z,11.90
2017-12-12T23:34:01.814Z,13.27
2017-12-12T23:36:29.693Z,10.47
2017-12-12T23:38:57.580Z,11.13
2017-12-12T23:41:25.408Z,12.60
2017-12-12T23:43:53.247Z,11.60
2017-12-12T23:46:21.169Z,11.67
2017-12-12T23:48:49.029Z,10.83
2017-12-12T23:51:16.915Z,11.63
2017-12-12T23:53:44.789Z,11.07
2017-12-12T23:56:12.679Z,11.00
2017-12-12T23:58:40.525Z,11.43
